sensor_id;sensor_type;location;lat;lon;timestamp;P1;durP1;ratioP1;P2;durP2;ratioP2
13238;SDS011;6686;51.292;4.166;2023-02-28T00:01:27;9.07;;;6.10;;
13238;SDS011;6686;51.292;4.166;2023-02-28T00:04:13;9.10;;;5.93;;
13238;SDS011;6686;51.292;4.166;2023-02-28T00:06:59;8.57;;;5.90;;
13238;SDS011;6686;51.292;4.166;2023-02-28T00:09:45;8.23;;;6.67;;
13238;SDS011;6686;51.292;4.166;2023-02-28T00:12:31;8.47;;;6.13;;
13238;SDS011;6686;51.292;4.166;2023-02-28T00:15:17;7.10;;;5.63;;
13238;SDS011;6686;51.292;4.166;2023-02-28T00:18:03;8.57;;;6.60;;
13238;SDS011;6686;51.292;4.166;2023-02-28T00:20:49;8.90;;;5.73;;
13238;SDS011;6686;51.292;4.166;2023-02-28T00:23:35;8.33;;;6.07;;
13238;SDS011;6686;51.292;4.166;2023-02-28T00:26:20;10.43;;;6.37;;
13238;SDS011;6686;51.292;4.166;2023-02-28T00:29:07;7.83;;;5.73;;
13238;SDS011;6686;51.292;4.166;2023-02-28T00:31:53;11.63;;;6.63;;
13238;SDS011;6686;51.292;4.166;2023-02-28T00:34:39;7.83;;;5.70;;
13238;SDS011;6686;51.292;4.166;2023-02-28T00:37:25;5.80;;;5.27;;
13238;SDS011;6686;51.292;4.166;2023-02-28T00:40:11;8.87;;;5.53;;
13238;SDS011;6686;51.292;4.166;2023-02-28T00:42:57;6.70;;;6.10;;
13238;SDS011;6686;51.292;4.166;2023-02-28T00:45:43;7.77;;;5.60;;
13238;SDS011;6686;51.292;4.166;2023-02-28T00:48:28;7.60;;;6.10;;
13238;SDS011;6686;51.292;4.166;2023-02-28T00:51:14;7.03;;;6.03;;
13238;SDS011;6686;51.292;4.166;2023-02-28T00:54:00;6.10;;;5.50;;
13238;SDS011;6686;51.292;4.166;2023-02-28T00:56:46;6.67;;;5.60;;
13238;SDS011;6686;51.292;4.166;2023-02-28T00:59:32;8.17;;;5.70;;
13238;SDS011;6686;51.292;4.166;2023-02-28T01:02:18;6.33;;;5.00;;
13238;SDS011;6686;51.292;4.166;2023-02-28T01:05:04;6.50;;;5.50;;
13238;SDS011;6686;51.292;4.166;2023-02-28T01:07:53;6.27;;;5.20;;
13238;SDS011;6686;51.292;4.166;2023-02-28T01:10:39;5.77;;;4.57;;
13238;SDS011;6686;51.292;4.166;2023-02-28T01:13:25;6.33;;;5.50;;
13238;SDS011;6686;51.292;4.166;2023-02-28T01:16:11;5.87;;;5.27;;
13238;SDS011;6686;51.292;4.166;2023-02-28T01:18:57;6.77;;;5.30;;
13238;SDS011;6686;51.292;4.166;2023-02-28T01:21:42;6.37;;;5.23;;
13238;SDS011;6686;51.292;4.166;2023-02-28T01:24:28;6.03;;;5.43;;
13238;SDS011;6686;51.292;4.166;2023-02-28T01:27:15;8.67;;;4.90;;
13238;SDS011;6686;51.292;4.166;2023-02-28T01:30:00;8.13;;;5.27;;
13238;SDS011;6686;51.292;4.166;2023-02-28T01:32:46;7.50;;;5.47;;
13238;SDS011;6686;51.292;4.166;2023-02-28T01:35:33;8.70;;;5.73;;
13238;SDS011;6686;51.292;4.166;2023-02-28T01:38:18;10.67;;;5.47;;
13238;SDS011;6686;51.292;4.166;2023-02-28T01:41:05;6.20;;;5.37;;
13238;SDS011;6686;51.292;4.166;2023-02-28T01:43:58;7.13;;;5.43;;
13238;SDS011;6686;51.292;4.166;2023-02-28T01:46:43;7.43;;;5.70;;
13238;SDS011;6686;51.292;4.166;2023-02-28T01:49:28;7.83;;;5.53;;
13238;SDS011;6686;51.292;4.166;2023-02-28T01:52:14;12.03;;;9.70;;
13238;SDS011;6686;51.292;4.166;2023-02-28T01:55:01;11.10;;;7.10;;
13238;SDS011;6686;51.292;4.166;2023-02-28T01:57:48;9.03;;;6.60;;
13238;SDS011;6686;51.292;4.166;2023-02-28T02:00:33;7.07;;;6.20;;
13238;SDS011;6686;51.292;4.166;2023-02-28T02:03:19;8.00;;;7.07;;
13238;SDS011;6686;51.292;4.166;2023-02-28T02:06:05;6.80;;;6.20;;
13238;SDS011;6686;51.292;4.166;2023-02-28T02:08:51;9.48;;;7.60;;
13238;SDS011;6686;51.292;4.166;2023-02-28T02:11:39;7.37;;;5.50;;
13238;SDS011;6686;51.292;4.166;2023-02-28T02:14:29;7.87;;;5.97;;
13238;SDS011;6686;51.292;4.166;2023-02-28T02:20:16;6.87;;;5.03;;
13238;SDS011;6686;51.292;4.166;2023-02-28T02:26:45;5.97;;;4.93;;
13238;SDS011;6686;51.292;4.166;2023-02-28T02:29:35;9.43;;;5.43;;
13238;SDS011;6686;51.292;4.166;2023-02-28T02:36:05;7.10;;;5.07;;
13238;SDS011;6686;51.292;4.166;2023-02-28T02:39:08;6.20;;;4.77;;
13238;SDS011;6686;51.292;4.166;2023-02-28T02:41:58;5.27;;;4.77;;
13238;SDS011;6686;51.292;4.166;2023-02-28T02:44:47;7.77;;;4.97;;
13238;SDS011;6686;51.292;4.166;2023-02-28T02:47:32;6.00;;;4.93;;
13238;SDS011;6686;51.292;4.166;2023-02-28T02:50:19;7.60;;;5.78;;
13238;SDS011;6686;51.292;4.166;2023-02-28T02:53:09;10.13;;;9.10;;
13238;SDS011;6686;51.292;4.166;2023-02-28T02:55:55;6.53;;;4.73;;
13238;SDS011;6686;51.292;4.166;2023-02-28T02:58:41;13.50;;;5.10;;
13238;SDS011;6686;51.292;4.166;2023-02-28T03:01:27;6.30;;;5.20;;
13238;SDS011;6686;51.292;4.166;2023-02-28T03:04:16;6.62;;;5.20;;
13238;SDS011;6686;51.292;4.166;2023-02-28T03:07:01;5.60;;;4.80;;
13238;SDS011;6686;51.292;4.166;2023-02-28T03:09:54;9.03;;;5.00;;
13238;SDS011;6686;51.292;4.166;2023-02-28T03:12:41;7.00;;;4.87;;
13238;SDS011;6686;51.292;4.166;2023-02-28T03:15:31;7.53;;;5.27;;
13238;SDS011;6686;51.292;4.166;2023-02-28T03:18:24;6.50;;;4.50;;
13238;SDS011;6686;51.292;4.166;2023-02-28T03:21:19;6.35;;;5.75;;
13238;SDS011;6686;51.292;4.166;2023-02-28T03:24:18;5.67;;;4.87;;
13238;SDS011;6686;51.292;4.166;2023-02-28T03:27:07;5.90;;;5.23;;
13238;SDS011;6686;51.292;4.166;2023-02-28T03:29:58;5.70;;;4.67;;
13238;SDS011;6686;51.292;4.166;2023-02-28T03:32:49;7.43;;;4.93;;
13238;SDS011;6686;51.292;4.166;2023-02-28T03:35:34;6.70;;;4.80;;
13238;SDS011;6686;51.292;4.166;2023-02-28T03:41:11;8.20;;;5.43;;
13238;SDS011;6686;51.292;4.166;2023-02-28T03:43:58;6.20;;;5.27;;
13238;SDS011;6686;51.292;4.166;2023-02-28T03:46:45;7.87;;;6.00;;
13238;SDS011;6686;51.292;4.166;2023-02-28T03:49:33;9.57;;;5.87;;
13238;SDS011;6686;51.292;4.166;2023-02-28T03:52:18;9.27;;;5.60;;
13238;SDS011;6686;51.292;4.166;2023-02-28T03:55:05;8.07;;;6.10;;
13238;SDS011;6686;51.292;4.166;2023-02-28T03:57:55;6.83;;;6.03;;
13238;SDS011;6686;51.292;4.166;2023-02-28T04:00:39;7.00;;;4.87;;
13238;SDS011;6686;51.292;4.166;2023-02-28T04:03:25;9.13;;;5.57;;
13238;SDS011;6686;51.292;4.166;2023-02-28T04:06:18;10.67;;;5.13;;
13238;SDS011;6686;51.292;4.166;2023-02-28T04:09:05;6.90;;;5.67;;
13238;SDS011;6686;51.292;4.166;2023-02-28T04:11:51;11.37;;;6.70;;
13238;SDS011;6686;51.292;4.166;2023-02-28T04:14:37;7.53;;;5.27;;
13238;SDS011;6686;51.292;4.166;2023-02-28T04:17:23;9.57;;;6.65;;
13238;SDS011;6686;51.292;4.166;2023-02-28T04:20:09;7.53;;;5.60;;
13238;SDS011;6686;51.292;4.166;2023-02-28T04:22:55;9.40;;;5.47;;
13238;SDS011;6686;51.292;4.166;2023-02-28T04:25:41;6.33;;;5.43;;
13238;SDS011;6686;51.292;4.166;2023-02-28T04:28:26;6.03;;;5.10;;
13238;SDS011;6686;51.292;4.166;2023-02-28T04:31:15;7.03;;;5.20;;
13238;SDS011;6686;51.292;4.166;2023-02-28T04:34:01;6.03;;;4.70;;
13238;SDS011;6686;51.292;4.166;2023-02-28T04:36:47;6.17;;;4.73;;
13238;SDS011;6686;51.292;4.166;2023-02-28T04:39:36;8.73;;;4.87;;
13238;SDS011;6686;51.292;4.166;2023-02-28T04:42:22;7.30;;;5.30;;
13238;SDS011;6686;51.292;4.166;2023-02-28T04:45:08;6.17;;;5.43;;
13238;SDS011;6686;51.292;4.166;2023-02-28T04:47:54;7.23;;;5.47;;
13238;SDS011;6686;51.292;4.166;2023-02-28T04:50:40;7.60;;;5.70;;
13238;SDS011;6686;51.292;4.166;2023-02-28T04:53:26;9.03;;;5.60;;
13238;SDS011;6686;51.292;4.166;2023-02-28T04:56:14;10.32;;;6.80;;
13238;SDS011;6686;51.292;4.166;2023-02-28T04:58:59;7.73;;;5.87;;
13238;SDS011;6686;51.292;4.166;2023-02-28T05:01:45;11.60;;;6.20;;
13238;SDS011;6686;51.292;4.166;2023-02-28T05:04:31;11.80;;;7.60;;
13238;SDS011;6686;51.292;4.166;2023-02-28T05:07:17;11.77;;;7.33;;
13238;SDS011;6686;51.292;4.166;2023-02-28T05:10:03;12.20;;;7.27;;
13238;SDS011;6686;51.292;4.166;2023-02-28T05:12:49;15.47;;;8.10;;
13238;SDS011;6686;51.292;4.166;2023-02-28T05:15:35;13.17;;;7.03;;
13238;SDS011;6686;51.292;4.166;2023-02-28T05:18:20;13.83;;;6.77;;
13238;SDS011;6686;51.292;4.166;2023-02-28T05:21:12;9.98;;;7.05;;
13238;SDS011;6686;51.292;4.166;2023-02-28T05:23:56;7.37;;;5.47;;
13238;SDS011;6686;51.292;4.166;2023-02-28T05:26:42;8.63;;;5.60;;
13238;SDS011;6686;51.292;4.166;2023-02-28T05:29:27;6.30;;;4.50;;
13238;SDS011;6686;51.292;4.166;2023-02-28T05:32:14;6.10;;;4.67;;
13238;SDS011;6686;51.292;4.166;2023-02-28T05:34:59;7.00;;;4.73;;
13238;SDS011;6686;51.292;4.166;2023-02-28T05:37:45;4.90;;;4.40;;
13238;SDS011;6686;51.292;4.166;2023-02-28T05:40:34;6.00;;;4.93;;
13238;SDS011;6686;51.292;4.166;2023-02-28T05:43:21;5.70;;;5.10;;
13238;SDS011;6686;51.292;4.166;2023-02-28T05:46:14;8.53;;;5.10;;
13238;SDS011;6686;51.292;4.166;2023-02-28T05:48:57;6.67;;;5.60;;
13238;SDS011;6686;51.292;4.166;2023-02-28T05:51:43;8.90;;;5.23;;
13238;SDS011;6686;51.292;4.166;2023-02-28T05:54:29;8.37;;;5.73;;
13238;SDS011;6686;51.292;4.166;2023-02-28T05:57:16;8.90;;;5.90;;
13238;SDS011;6686;51.292;4.166;2023-02-28T06:00:04;9.63;;;5.33;;
13238;SDS011;6686;51.292;4.166;2023-02-28T06:02:50;9.50;;;5.80;;
13238;SDS011;6686;51.292;4.166;2023-02-28T06:05:35;9.30;;;6.40;;
13238;SDS011;6686;51.292;4.166;2023-02-28T06:08:21;8.10;;;5.20;;
13238;SDS011;6686;51.292;4.166;2023-02-28T06:11:08;9.83;;;5.80;;
13238;SDS011;6686;51.292;4.166;2023-02-28T06:13:55;12.47;;;7.33;;
13238;SDS011;6686;51.292;4.166;2023-02-28T06:16:40;9.40;;;6.77;;
13238;SDS011;6686;51.292;4.166;2023-02-28T06:19:26;8.30;;;5.77;;
13238;SDS011;6686;51.292;4.166;2023-02-28T06:22:12;7.10;;;5.60;;
13238;SDS011;6686;51.292;4.166;2023-02-28T06:24:58;7.37;;;4.30;;
13238;SDS011;6686;51.292;4.166;2023-02-28T06:27:44;5.23;;;3.93;;
13238;SDS011;6686;51.292;4.166;2023-02-28T06:30:30;6.73;;;4.90;;
13238;SDS011;6686;51.292;4.166;2023-02-28T06:33:17;6.57;;;5.10;;
13238;SDS011;6686;51.292;4.166;2023-02-28T06:36:04;5.17;;;4.50;;
13238;SDS011;6686;51.292;4.166;2023-02-28T06:38:52;6.72;;;5.43;;
13238;SDS011;6686;51.292;4.166;2023-02-28T06:41:38;7.60;;;4.77;;
13238;SDS011;6686;51.292;4.166;2023-02-28T06:44:24;4.83;;;4.03;;
13238;SDS011;6686;51.292;4.166;2023-02-28T06:47:09;7.97;;;4.57;;
13238;SDS011;6686;51.292;4.166;2023-02-28T06:49:55;4.80;;;3.67;;
13238;SDS011;6686;51.292;4.166;2023-02-28T06:52:42;6.20;;;4.95;;
13238;SDS011;6686;51.292;4.166;2023-02-28T06:55:28;5.80;;;5.22;;
13238;SDS011;6686;51.292;4.166;2023-02-28T06:58:13;6.07;;;4.37;;
13238;SDS011;6686;51.292;4.166;2023-02-28T07:00:59;6.10;;;4.70;;
13238;SDS011;6686;51.292;4.166;2023-02-28T07:03:45;4.57;;;4.10;;
13238;SDS011;6686;51.292;4.166;2023-02-28T07:06:31;5.77;;;5.27;;
13238;SDS011;6686;51.292;4.166;2023-02-28T07:09:17;5.13;;;3.50;;
13238;SDS011;6686;51.292;4.166;2023-02-28T07:12:03;6.67;;;4.97;;
13238;SDS011;6686;51.292;4.166;2023-02-28T07:14:49;5.85;;;4.62;;
13238;SDS011;6686;51.292;4.166;2023-02-28T07:17:35;7.17;;;5.30;;
13238;SDS011;6686;51.292;4.166;2023-02-28T07:20:21;7.80;;;5.00;;
13238;SDS011;6686;51.292;4.166;2023-02-28T07:23:06;9.70;;;7.17;;
13238;SDS011;6686;51.292;4.166;2023-02-28T07:25:52;12.47;;;6.53;;
13238;SDS011;6686;51.292;4.166;2023-02-28T07:28:41;7.30;;;6.17;;
13238;SDS011;6686;51.292;4.166;2023-02-28T07:31:27;9.83;;;6.27;;
13238;SDS011;6686;51.292;4.166;2023-02-28T07:34:14;6.73;;;5.53;;
13238;SDS011;6686;51.292;4.166;2023-02-28T07:37:00;8.47;;;4.87;;
13238;SDS011;6686;51.292;4.166;2023-02-28T07:39:46;6.53;;;4.93;;
13238;SDS011;6686;51.292;4.166;2023-02-28T07:42:34;8.37;;;5.00;;
13238;SDS011;6686;51.292;4.166;2023-02-28T07:45:20;6.10;;;4.40;;
13238;SDS011;6686;51.292;4.166;2023-02-28T07:48:06;6.27;;;4.90;;
13238;SDS011;6686;51.292;4.166;2023-02-28T07:50:55;9.30;;;5.57;;
13238;SDS011;6686;51.292;4.166;2023-02-28T07:53:43;6.30;;;5.10;;
13238;SDS011;6686;51.292;4.166;2023-02-28T07:56:29;9.23;;;5.72;;
13238;SDS011;6686;51.292;4.166;2023-02-28T07:59:15;9.30;;;5.30;;
13238;SDS011;6686;51.292;4.166;2023-02-28T08:02:01;5.53;;;4.97;;
13238;SDS011;6686;51.292;4.166;2023-02-28T08:04:46;8.37;;;7.33;;
13238;SDS011;6686;51.292;4.166;2023-02-28T08:07:33;8.33;;;5.23;;
13238;SDS011;6686;51.292;4.166;2023-02-28T08:10:19;5.83;;;5.10;;
13238;SDS011;6686;51.292;4.166;2023-02-28T08:13:05;7.90;;;5.03;;
13238;SDS011;6686;51.292;4.166;2023-02-28T08:15:52;9.30;;;5.53;;
13238;SDS011;6686;51.292;4.166;2023-02-28T08:18:38;8.37;;;5.40;;
13238;SDS011;6686;51.292;4.166;2023-02-28T08:21:23;10.93;;;5.23;;
13238;SDS011;6686;51.292;4.166;2023-02-28T08:24:09;7.67;;;4.43;;
13238;SDS011;6686;51.292;4.166;2023-02-28T08:26:55;6.33;;;4.83;;
13238;SDS011;6686;51.292;4.166;2023-02-28T08:29:42;5.60;;;4.27;;
13238;SDS011;6686;51.292;4.166;2023-02-28T08:32:28;6.67;;;4.73;;
13238;SDS011;6686;51.292;4.166;2023-02-28T08:35:13;5.03;;;3.83;;
13238;SDS011;6686;51.292;4.166;2023-02-28T08:37:59;4.80;;;4.30;;
13238;SDS011;6686;51.292;4.166;2023-02-28T08:40:45;5.20;;;4.33;;
13238;SDS011;6686;51.292;4.166;2023-02-28T08:43:31;5.50;;;4.20;;
13238;SDS011;6686;51.292;4.166;2023-02-28T08:46:17;7.27;;;4.57;;
13238;SDS011;6686;51.292;4.166;2023-02-28T08:49:04;6.20;;;4.50;;
13238;SDS011;6686;51.292;4.166;2023-02-28T08:52:10;4.57;;;4.10;;
13238;SDS011;6686;51.292;4.166;2023-02-28T08:54:52;5.85;;;4.62;;
13238;SDS011;6686;51.292;4.166;2023-02-28T08:57:38;5.27;;;4.23;;
13238;SDS011;6686;51.292;4.166;2023-02-28T09:00:23;5.67;;;4.00;;
13238;SDS011;6686;51.292;4.166;2023-02-28T09:03:10;5.77;;;3.90;;
13238;SDS011;6686;51.292;4.166;2023-02-28T09:05:57;7.30;;;4.77;;
13238;SDS011;6686;51.292;4.166;2023-02-28T09:08:42;4.47;;;3.60;;
13238;SDS011;6686;51.292;4.166;2023-02-28T09:11:28;6.03;;;4.20;;
13238;SDS011;6686;51.292;4.166;2023-02-28T09:14:14;6.10;;;4.10;;
13238;SDS011;6686;51.292;4.166;2023-02-28T09:17:01;5.90;;;3.63;;
13238;SDS011;6686;51.292;4.166;2023-02-28T09:19:48;4.70;;;3.40;;
13238;SDS011;6686;51.292;4.166;2023-02-28T09:22:33;3.97;;;2.90;;
13238;SDS011;6686;51.292;4.166;2023-02-28T09:25:19;3.00;;;2.70;;
13238;SDS011;6686;51.292;4.166;2023-02-28T09:28:04;4.57;;;3.03;;
13238;SDS011;6686;51.292;4.166;2023-02-28T09:30:51;4.60;;;3.55;;
13238;SDS011;6686;51.292;4.166;2023-02-28T09:33:38;6.40;;;3.20;;
13238;SDS011;6686;51.292;4.166;2023-02-28T09:36:25;2.80;;;2.60;;
13238;SDS011;6686;51.292;4.166;2023-02-28T09:39:10;5.33;;;3.13;;
13238;SDS011;6686;51.292;4.166;2023-02-28T09:41:56;5.50;;;3.07;;
13238;SDS011;6686;51.292;4.166;2023-02-28T09:44:43;3.80;;;2.93;;
13238;SDS011;6686;51.292;4.166;2023-02-28T09:53:18;3.40;;;3.10;;
13238;SDS011;6686;51.292;4.166;2023-02-28T10:05:19;6.20;;;3.00;;
13238;SDS011;6686;51.292;4.166;2023-02-28T10:08:03;3.33;;;2.53;;
13238;SDS011;6686;51.292;4.166;2023-02-28T10:10:51;3.77;;;2.20;;
13238;SDS011;6686;51.292;4.166;2023-02-28T10:13:49;2.97;;;2.37;;
13238;SDS011;6686;51.292;4.166;2023-02-28T10:16:52;3.07;;;2.77;;
13238;SDS011;6686;51.292;4.166;2023-02-28T10:22:37;3.00;;;2.50;;
13238;SDS011;6686;51.292;4.166;2023-02-28T10:25:21;3.47;;;3.17;;
13238;SDS011;6686;51.292;4.166;2023-02-28T10:33:39;4.37;;;2.87;;
13238;SDS011;6686;51.292;4.166;2023-02-28T10:36:25;4.00;;;2.40;;
13238;SDS011;6686;51.292;4.166;2023-02-28T10:42:26;3.87;;;2.10;;
13238;SDS011;6686;51.292;4.166;2023-02-28T10:45:15;2.43;;;2.23;;
13238;SDS011;6686;51.292;4.166;2023-02-28T10:48:01;3.80;;;2.55;;
13238;SDS011;6686;51.292;4.166;2023-02-28T10:53:45;3.33;;;2.30;;
13238;SDS011;6686;51.292;4.166;2023-02-28T10:56:28;2.83;;;1.93;;
13238;SDS011;6686;51.292;4.166;2023-02-28T11:02:00;3.00;;;2.60;;
13238;SDS011;6686;51.292;4.166;2023-02-28T11:04:45;3.03;;;2.20;;
13238;SDS011;6686;51.292;4.166;2023-02-28T11:07:31;2.57;;;2.37;;
13238;SDS011;6686;51.292;4.166;2023-02-28T11:10:21;2.50;;;2.30;;
13238;SDS011;6686;51.292;4.166;2023-02-28T11:13:06;4.07;;;2.33;;
13238;SDS011;6686;51.292;4.166;2023-02-28T11:15:56;2.73;;;2.10;;
13238;SDS011;6686;51.292;4.166;2023-02-28T11:18:42;2.47;;;2.28;;
13238;SDS011;6686;51.292;4.166;2023-02-28T11:21:28;2.70;;;2.25;;
13238;SDS011;6686;51.292;4.166;2023-02-28T11:33:27;2.50;;;1.80;;
13238;SDS011;6686;51.292;4.166;2023-02-28T11:36:16;2.27;;;2.07;;
13238;SDS011;6686;51.292;4.166;2023-02-28T11:39:09;2.90;;;2.10;;
13238;SDS011;6686;51.292;4.166;2023-02-28T11:45:38;1.97;;;1.83;;
13238;SDS011;6686;51.292;4.166;2023-02-28T11:48:23;2.30;;;2.10;;
13238;SDS011;6686;51.292;4.166;2023-02-28T11:51:29;2.60;;;2.00;;
13238;SDS011;6686;51.292;4.166;2023-02-28T12:03:28;3.73;;;1.93;;
13238;SDS011;6686;51.292;4.166;2023-02-28T12:15:16;2.67;;;2.10;;
13238;SDS011;6686;51.292;4.166;2023-02-28T12:27:02;2.33;;;2.10;;
13238;SDS011;6686;51.292;4.166;2023-02-28T12:33:24;2.33;;;2.07;;
13238;SDS011;6686;51.292;4.166;2023-02-28T12:36:00;1.90;;;1.80;;
13238;SDS011;6686;51.292;4.166;2023-02-28T12:38:56;3.30;;;2.00;;
13238;SDS011;6686;51.292;4.166;2023-02-28T12:42:03;3.27;;;2.03;;
13238;SDS011;6686;51.292;4.166;2023-02-28T12:45:39;8.40;;;2.87;;
13238;SDS011;6686;51.292;4.166;2023-02-28T12:47:42;2.43;;;1.90;;
13238;SDS011;6686;51.292;4.166;2023-02-28T12:50:28;4.60;;;2.17;;
13238;SDS011;6686;51.292;4.166;2023-02-28T12:53:21;2.00;;;1.90;;
13238;SDS011;6686;51.292;4.166;2023-02-28T13:17:21;2.97;;;2.30;;
13238;SDS011;6686;51.292;4.166;2023-02-28T13:20:14;2.33;;;2.13;;
13238;SDS011;6686;51.292;4.166;2023-02-28T13:22:53;2.43;;;2.23;;
13238;SDS011;6686;51.292;4.166;2023-02-28T13:37:42;2.60;;;2.40;;
13238;SDS011;6686;51.292;4.166;2023-02-28T13:40:31;2.73;;;2.53;;
13238;SDS011;6686;51.292;4.166;2023-02-28T13:43:17;4.23;;;2.93;;
13238;SDS011;6686;51.292;4.166;2023-02-28T13:46:06;3.13;;;2.80;;
13238;SDS011;6686;51.292;4.166;2023-02-28T13:48:53;2.70;;;2.50;;
13238;SDS011;6686;51.292;4.166;2023-02-28T13:51:43;3.80;;;2.27;;
13238;SDS011;6686;51.292;4.166;2023-02-28T14:00:46;2.97;;;2.47;;
13238;SDS011;6686;51.292;4.166;2023-02-28T14:03:38;4.57;;;2.67;;
13238;SDS011;6686;51.292;4.166;2023-02-28T14:09:21;5.30;;;3.20;;
13238;SDS011;6686;51.292;4.166;2023-02-28T14:18:21;3.97;;;2.67;;
13238;SDS011;6686;51.292;4.166;2023-02-28T14:21:14;2.90;;;2.40;;
13238;SDS011;6686;51.292;4.166;2023-02-28T14:36:52;2.60;;;2.40;;
13238;SDS011;6686;51.292;4.166;2023-02-28T14:39:40;4.50;;;3.03;;
13238;SDS011;6686;51.292;4.166;2023-02-28T14:45:19;6.27;;;4.10;;
13238;SDS011;6686;51.292;4.166;2023-02-28T14:48:09;2.87;;;2.50;;
13238;SDS011;6686;51.292;4.166;2023-02-28T14:50:56;5.57;;;3.20;;
13238;SDS011;6686;51.292;4.166;2023-02-28T14:53:38;5.07;;;3.10;;
13238;SDS011;6686;51.292;4.166;2023-02-28T14:56:25;3.50;;;2.67;;
13238;SDS011;6686;51.292;4.166;2023-02-28T14:59:27;3.93;;;3.30;;
13238;SDS011;6686;51.292;4.166;2023-02-28T15:02:21;4.20;;;2.77;;
13238;SDS011;6686;51.292;4.166;2023-02-28T15:08:02;4.33;;;2.90;;
13238;SDS011;6686;51.292;4.166;2023-02-28T15:10:53;3.10;;;2.67;;
13238;SDS011;6686;51.292;4.166;2023-02-28T15:13:43;3.20;;;2.40;;
13238;SDS011;6686;51.292;4.166;2023-02-28T15:16:37;3.67;;;2.70;;
13238;SDS011;6686;51.292;4.166;2023-02-28T15:19:26;4.33;;;2.90;;
13238;SDS011;6686;51.292;4.166;2023-02-28T15:22:12;3.53;;;2.70;;
13238;SDS011;6686;51.292;4.166;2023-02-28T15:25:00;3.53;;;3.00;;
13238;SDS011;6686;51.292;4.166;2023-02-28T15:27:48;3.35;;;2.90;;
13238;SDS011;6686;51.292;4.166;2023-02-28T15:30:32;3.27;;;2.97;;
13238;SDS011;6686;51.292;4.166;2023-02-28T15:33:19;2.70;;;2.50;;
13238;SDS011;6686;51.292;4.166;2023-02-28T15:36:17;3.30;;;3.00;;
13238;SDS011;6686;51.292;4.166;2023-02-28T15:38:53;3.17;;;2.90;;
13238;SDS011;6686;51.292;4.166;2023-02-28T15:41:39;4.07;;;2.90;;
13238;SDS011;6686;51.292;4.166;2023-02-28T15:44:28;2.80;;;2.60;;
13238;SDS011;6686;51.292;4.166;2023-02-28T15:47:20;3.67;;;3.00;;
13238;SDS011;6686;51.292;4.166;2023-02-28T15:50:10;2.93;;;2.40;;
13238;SDS011;6686;51.292;4.166;2023-02-28T15:52:54;2.90;;;2.60;;
13238;SDS011;6686;51.292;4.166;2023-02-28T15:55:40;3.20;;;2.80;;
13238;SDS011;6686;51.292;4.166;2023-02-28T15:58:26;3.00;;;2.70;;
13238;SDS011;6686;51.292;4.166;2023-02-28T16:01:28;2.83;;;2.57;;
13238;SDS011;6686;51.292;4.166;2023-02-28T16:09:45;4.65;;;3.42;;
13238;SDS011;6686;51.292;4.166;2023-02-28T16:12:32;3.10;;;2.80;;
13238;SDS011;6686;51.292;4.166;2023-02-28T16:15:18;4.63;;;3.20;;
13238;SDS011;6686;51.292;4.166;2023-02-28T16:18:07;3.43;;;3.07;;
13238;SDS011;6686;51.292;4.166;2023-02-28T16:20:51;3.27;;;2.97;;
13238;SDS011;6686;51.292;4.166;2023-02-28T16:23:37;4.53;;;3.30;;
13238;SDS011;6686;51.292;4.166;2023-02-28T16:26:24;4.03;;;3.37;;
13238;SDS011;6686;51.292;4.166;2023-02-28T16:29:10;3.73;;;3.40;;
13238;SDS011;6686;51.292;4.166;2023-02-28T16:31:56;3.97;;;3.23;;
13238;SDS011;6686;51.292;4.166;2023-02-28T16:34:42;4.33;;;3.53;;
13238;SDS011;6686;51.292;4.166;2023-02-28T16:37:28;4.23;;;3.60;;
13238;SDS011;6686;51.292;4.166;2023-02-28T16:40:17;3.80;;;2.90;;
13238;SDS011;6686;51.292;4.166;2023-02-28T16:43:12;3.53;;;3.03;;
13238;SDS011;6686;51.292;4.166;2023-02-28T16:46:01;4.57;;;3.23;;
13238;SDS011;6686;51.292;4.166;2023-02-28T16:48:47;5.00;;;3.20;;
13238;SDS011;6686;51.292;4.166;2023-02-28T16:51:32;5.63;;;3.63;;
13238;SDS011;6686;51.292;4.166;2023-02-28T16:54:18;3.60;;;3.20;;
13238;SDS011;6686;51.292;4.166;2023-02-28T16:57:04;9.50;;;4.40;;
13238;SDS011;6686;51.292;4.166;2023-02-28T16:59:50;4.40;;;3.40;;
13238;SDS011;6686;51.292;4.166;2023-02-28T17:02:36;4.85;;;3.97;;
13238;SDS011;6686;51.292;4.166;2023-02-28T17:05:21;10.43;;;4.03;;
13238;SDS011;6686;51.292;4.166;2023-02-28T17:08:08;3.70;;;3.40;;
13238;SDS011;6686;51.292;4.166;2023-02-28T17:10:53;10.00;;;4.63;;
13238;SDS011;6686;51.292;4.166;2023-02-28T17:13:39;5.00;;;3.50;;
13238;SDS011;6686;51.292;4.166;2023-02-28T17:19:14;3.90;;;3.50;;
13238;SDS011;6686;51.292;4.166;2023-02-28T17:21:59;4.75;;;4.00;;
13238;SDS011;6686;51.292;4.166;2023-02-28T17:24:45;4.57;;;3.67;;
13238;SDS011;6686;51.292;4.166;2023-02-28T17:27:31;5.82;;;4.03;;
13238;SDS011;6686;51.292;4.166;2023-02-28T17:30:18;4.37;;;3.60;;
13238;SDS011;6686;51.292;4.166;2023-02-28T17:33:03;4.30;;;3.53;;
13238;SDS011;6686;51.292;4.166;2023-02-28T17:35:48;3.97;;;3.53;;
13238;SDS011;6686;51.292;4.166;2023-02-28T17:38:34;4.67;;;3.73;;
13238;SDS011;6686;51.292;4.166;2023-02-28T17:41:20;4.70;;;3.80;;
13238;SDS011;6686;51.292;4.166;2023-02-28T17:44:06;8.53;;;4.77;;
13238;SDS011;6686;51.292;4.166;2023-02-28T17:46:53;5.47;;;3.80;;
13238;SDS011;6686;51.292;4.166;2023-02-28T17:49:38;6.63;;;4.10;;
13238;SDS011;6686;51.292;4.166;2023-02-28T17:52:24;5.50;;;4.40;;
13238;SDS011;6686;51.292;4.166;2023-02-28T17:55:10;7.87;;;4.90;;
13238;SDS011;6686;51.292;4.166;2023-02-28T17:57:56;10.37;;;6.17;;
13238;SDS011;6686;51.292;4.166;2023-02-28T18:00:41;7.60;;;5.03;;
13238;SDS011;6686;51.292;4.166;2023-02-28T18:03:27;6.33;;;4.87;;
13238;SDS011;6686;51.292;4.166;2023-02-28T18:06:14;9.03;;;5.10;;
13238;SDS011;6686;51.292;4.166;2023-02-28T18:09:02;9.37;;;5.33;;
13238;SDS011;6686;51.292;4.166;2023-02-28T18:11:48;5.67;;;4.67;;
13238;SDS011;6686;51.292;4.166;2023-02-28T18:14:36;5.53;;;4.87;;
13238;SDS011;6686;51.292;4.166;2023-02-28T18:17:22;6.43;;;4.70;;
13238;SDS011;6686;51.292;4.166;2023-02-28T18:20:08;8.10;;;5.43;;
13238;SDS011;6686;51.292;4.166;2023-02-28T18:22:54;9.80;;;5.87;;
13238;SDS011;6686;51.292;4.166;2023-02-28T18:25:41;7.70;;;5.27;;
13238;SDS011;6686;51.292;4.166;2023-02-28T18:28:26;9.33;;;6.43;;
13238;SDS011;6686;51.292;4.166;2023-02-28T18:31:13;7.20;;;5.10;;
13238;SDS011;6686;51.292;4.166;2023-02-28T18:33:58;8.80;;;5.00;;
13238;SDS011;6686;51.292;4.166;2023-02-28T18:36:43;5.87;;;4.90;;
13238;SDS011;6686;51.292;4.166;2023-02-28T18:39:29;5.90;;;4.60;;
13238;SDS011;6686;51.292;4.166;2023-02-28T18:42:15;5.55;;;4.72;;
13238;SDS011;6686;51.292;4.166;2023-02-28T18:45:01;6.23;;;4.80;;
13238;SDS011;6686;51.292;4.166;2023-02-28T18:47:47;5.47;;;4.97;;
13238;SDS011;6686;51.292;4.166;2023-02-28T18:50:33;5.63;;;4.10;;
13238;SDS011;6686;51.292;4.166;2023-02-28T18:53:20;5.20;;;4.30;;
13238;SDS011;6686;51.292;4.166;2023-02-28T18:56:07;4.83;;;4.33;;
13238;SDS011;6686;51.292;4.166;2023-02-28T18:58:52;5.57;;;4.80;;
13238;SDS011;6686;51.292;4.166;2023-02-28T19:01:38;4.37;;;3.90;;
13238;SDS011;6686;51.292;4.166;2023-02-28T19:04:24;5.27;;;4.77;;
13238;SDS011;6686;51.292;4.166;2023-02-28T19:07:11;5.62;;;5.10;;
13238;SDS011;6686;51.292;4.166;2023-02-28T19:09:57;6.33;;;4.57;;
13238;SDS011;6686;51.292;4.166;2023-02-28T19:12:43;5.80;;;4.60;;
13238;SDS011;6686;51.292;4.166;2023-02-28T19:15:29;5.73;;;4.70;;
13238;SDS011;6686;51.292;4.166;2023-02-28T19:18:15;5.93;;;4.40;;
13238;SDS011;6686;51.292;4.166;2023-02-28T19:21:01;4.70;;;4.23;;
13238;SDS011;6686;51.292;4.166;2023-02-28T19:23:47;4.60;;;4.20;;
13238;SDS011;6686;51.292;4.166;2023-02-28T19:26:33;4.60;;;4.20;;
13238;SDS011;6686;51.292;4.166;2023-02-28T19:29:19;6.30;;;4.27;;
13238;SDS011;6686;51.292;4.166;2023-02-28T19:32:05;6.23;;;4.90;;
13238;SDS011;6686;51.292;4.166;2023-02-28T19:34:51;5.87;;;5.33;;
13238;SDS011;6686;51.292;4.166;2023-02-28T19:37:37;5.87;;;5.27;;
13238;SDS011;6686;51.292;4.166;2023-02-28T19:40:22;7.37;;;6.67;;
13238;SDS011;6686;51.292;4.166;2023-02-28T19:43:09;7.40;;;5.03;;
13238;SDS011;6686;51.292;4.166;2023-02-28T19:45:54;6.07;;;4.90;;